createdAt,value
2023-05-14T00:00:09.007Z,71.58
2023-05-14T00:01:09.022Z,71.75
2023-05-14T00:02:09.063Z,71.81
2023-05-14T00:03:09.199Z,71.91
2023-05-14T00:04:09.090Z,71.80
2023-05-14T00:05:09.029Z,71.77
2023-05-14T00:06:09.066Z,71.82
2023-05-14T00:07:09.031Z,71.79
2023-05-14T00:08:09.023Z,71.85
2023-05-14T00:09:09.002Z,71.76
2023-05-14T00:10:09.004Z,71.82
2023-05-14T00:11:09.121Z,71.85
2023-05-14T00:12:09.076Z,71.76
2023-05-14T00:13:09.092Z,71.77
2023-05-14T00:14:09.080Z,71.78
2023-05-14T00:15:09.082Z,71.82
2023-05-14T00:16:09.108Z,71.86
2023-05-14T00:17:09.058Z,71.82
2023-05-14T00:18:09.083Z,72.01
2023-05-14T00:19:09.106Z,71.98
2023-05-14T00:20:09.021Z,71.95
2023-05-14T00:21:09.046Z,71.94
2023-05-14T00:22:08.986Z,71.97
2023-05-14T00:23:08.976Z,71.78
2023-05-14T00:24:08.945Z,71.80
2023-05-14T00:25:08.929Z,71.84
2023-05-14T00:26:08.894Z,71.61
2023-05-14T00:27:08.890Z,71.45
2023-05-14T00:28:08.868Z,71.42
2023-05-14T00:29:08.859Z,71.53
2023-05-14T00:30:08.854Z,71.84
2023-05-14T00:31:08.897Z,71.73
2023-05-14T00:32:08.837Z,71.65
2023-05-14T00:33:08.842Z,71.57
2023-05-14T00:34:08.810Z,71.64
2023-05-14T00:35:08.790Z,71.76
2023-05-14T00:36:08.771Z,72.01
2023-05-14T00:37:08.779Z,72.65
2023-05-14T00:38:08.755Z,73.14
2023-05-14T00:39:08.724Z,73.04
2023-05-14T00:40:08.761Z,72.97
2023-05-14T00:41:08.695Z,73.58
2023-05-14T00:42:08.673Z,74.10
2023-05-14T00:43:08.686Z,74.27
2023-05-14T00:44:08.696Z,75.17
2023-05-14T00:45:08.669Z,74.83
2023-05-14T00:46:08.697Z,74.80
2023-05-14T00:47:09.025Z,74.41
2023-05-14T00:48:08.769Z,75.04
2023-05-14T00:49:08.745Z,74.62
2023-05-14T00:50:09.215Z,74.24
2023-05-14T00:51:08.876Z,73.99
2023-05-14T00:52:08.796Z,73.80
2023-05-14T00:53:08.871Z,73.95
2023-05-14T00:54:08.872Z,74.04
2023-05-14T00:55:08.912Z,73.88
2023-05-14T00:56:09.702Z,73.66
2023-05-14T00:57:08.980Z,73.53
2023-05-14T00:58:09.010Z,73.37
2023-05-14T00:59:09.051Z,73.29
2023-05-14T01:00:09.081Z,73.27
2023-05-14T01:01:09.170Z,73.12
2023-05-14T01:02:09.154Z,73.05
2023-05-14T01:03:09.395Z,72.80
2023-05-14T01:04:09.271Z,72.81
2023-05-14T01:05:09.251Z,72.75
2023-05-14T01:06:09.225Z,72.76
2023-05-14T01:07:09.232Z,72.63
2023-05-14T01:08:09.217Z,72.67
2023-05-14T01:09:09.221Z,72.61
2023-05-14T01:10:09.207Z,72.62
2023-05-14T01:11:09.216Z,72.59
2023-05-14T01:12:09.182Z,72.94
2023-05-14T01:13:09.188Z,72.93
2023-05-14T01:14:09.166Z,72.84
2023-05-14T01:15:09.190Z,72.82
2023-05-14T01:16:09.216Z,72.84
2023-05-14T01:17:09.127Z,72.81
2023-05-14T01:18:09.155Z,72.68
2023-05-14T01:19:09.123Z,72.53
2023-05-14T01:20:09.136Z,72.47
2023-05-14T01:21:09.101Z,72.31
2023-05-14T01:22:09.107Z,72.28
2023-05-14T01:23:09.136Z,72.23
2023-05-14T01:24:09.147Z,72.30
2023-05-14T01:25:09.187Z,72.41
2023-05-14T01:26:10.215Z,72.59
2023-05-14T01:27:09.242Z,72.65
2023-05-14T01:28:09.221Z,72.65
2023-05-14T01:29:09.196Z,72.53
2023-05-14T01:30:09.198Z,72.37
2023-05-14T01:31:09.180Z,72.18
2023-05-14T01:32:09.325Z,72.04
2023-05-14T01:33:09.203Z,72.02
2023-05-14T01:34:09.186Z,72.18
2023-05-14T01:35:09.190Z,72.42
2023-05-14T01:36:09.200Z,72.38
2023-05-14T01:37:09.188Z,72.30
2023-05-14T01:38:09.733Z,72.23
2023-05-14T01:39:09.159Z,72.19
2023-05-14T01:40:09.174Z,72.10
2023-05-14T01:41:09.139Z,71.94
2023-05-14T01:42:09.161Z,72.09
2023-05-14T01:43:09.147Z,72.33
2023-05-14T01:44:09.159Z,72.27
2023-05-14T01:45:09.113Z,72.19
2023-05-14T01:46:09.194Z,72.11
2023-05-14T01:47:09.100Z,72.18
2023-05-14T01:48:09.150Z,72.17
2023-05-14T01:49:09.099Z,72.12
2023-05-14T01:50:09.173Z,72.05
2023-05-14T01:51:09.086Z,71.97
2023-05-14T01:52:09.086Z,71.98
2023-05-14T01:53:09.157Z,71.77
2023-05-14T01:54:09.094Z,71.81
2023-05-14T01:55:09.109Z,71.81
2023-05-14T01:56:09.109Z,71.97
2023-05-14T01:57:09.084Z,71.99
2023-05-14T01:58:09.135Z,72.06
2023-05-14T01:59:09.067Z,72.12
2023-05-14T02:00:09.069Z,72.13
2023-05-14T02:01:09.090Z,72.18
2023-05-14T02:02:09.082Z,72.15
2023-05-14T02:03:09.134Z,72.09
2023-05-14T02:04:09.132Z,72.01
2023-05-14T02:05:09.114Z,72.03
2023-05-14T02:06:09.169Z,72.11
2023-05-14T02:07:09.211Z,72.10
2023-05-14T02:08:09.252Z,72.09
2023-05-14T02:09:09.279Z,72.04
2023-05-14T02:10:09.327Z,72.04
2023-05-14T02:11:10.215Z,71.94
2023-05-14T02:12:09.423Z,72.00
2023-05-14T02:13:09.448Z,72.10
2023-05-14T02:14:09.526Z,72.20
2023-05-14T02:15:09.569Z,72.28
2023-05-14T02:16:09.653Z,72.38
2023-05-14T02:17:10.197Z,72.35
2023-05-14T02:18:09.808Z,72.38
2023-05-14T02:19:09.741Z,72.43
2023-05-14T02:20:09.768Z,72.38
2023-05-14T02:21:09.786Z,72.32
2023-05-14T02:22:09.862Z,72.27
2023-05-14T02:23:09.894Z,72.13
2023-05-14T02:24:09.948Z,72.07
2023-05-14T02:25:10.015Z,71.89
2023-05-14T02:26:10.079Z,71.89
2023-05-14T02:27:10.084Z,71.95
2023-05-14T02:28:10.128Z,71.95
2023-05-14T02:29:10.139Z,72.05
2023-05-14T02:30:10.200Z,72.16
2023-05-14T02:31:10.262Z,72.29
2023-05-14T02:32:10.233Z,72.44
2023-05-14T02:33:10.332Z,72.43
2023-05-14T02:34:10.202Z,72.42
2023-05-14T02:35:10.222Z,72.37
2023-05-14T02:36:10.216Z,72.35
2023-05-14T02:37:10.209Z,72.31
2023-05-14T02:38:10.209Z,72.25
2023-05-14T02:39:10.242Z,72.20
2023-05-14T02:40:10.237Z,72.17
2023-05-14T02:41:10.212Z,72.10
2023-05-14T02:42:10.222Z,72.12
2023-05-14T02:43:10.257Z,72.15
2023-05-14T02:44:10.282Z,72.09
2023-05-14T02:45:10.301Z,71.98
2023-05-14T02:46:10.352Z,71.86
2023-05-14T02:47:10.526Z,71.87
2023-05-14T02:48:10.552Z,71.79
2023-05-14T02:49:10.535Z,71.80
2023-05-14T02:50:10.562Z,71.72
2023-05-14T02:51:10.594Z,71.67
2023-05-14T02:52:10.627Z,71.76
2023-05-14T02:53:10.650Z,71.80
2023-05-14T02:54:10.696Z,71.91
2023-05-14T02:55:10.750Z,71.91
2023-05-14T02:56:10.841Z,71.92
2023-05-14T02:57:10.874Z,71.92
2023-05-14T02:58:10.940Z,71.89
2023-05-14T02:59:11.040Z,71.97
2023-05-14T03:00:11.092Z,72.07
2023-05-14T03:01:11.181Z,72.00
2023-05-14T03:02:11.195Z,71.99
2023-05-14T03:03:11.186Z,71.95
2023-05-14T03:04:11.220Z,71.89
2023-05-14T03:05:11.263Z,71.81
2023-05-14T03:06:11.329Z,71.89
2023-05-14T03:07:11.306Z,72.00
2023-05-14T03:08:11.331Z,72.04
2023-05-14T03:09:11.375Z,71.94
2023-05-14T03:10:11.373Z,71.96
2023-05-14T03:11:11.383Z,71.97
2023-05-14T03:12:11.377Z,71.93
2023-05-14T03:13:11.410Z,71.96
2023-05-14T03:14:11.422Z,72.03
2023-05-14T03:15:11.452Z,72.06
2023-05-14T03:16:11.597Z,72.17
2023-05-14T03:17:11.622Z,72.31
2023-05-14T03:18:11.459Z,72.42
2023-05-14T03:19:11.495Z,72.40
2023-05-14T03:20:11.451Z,72.43
2023-05-14T03:21:11.468Z,72.45
2023-05-14T03:22:11.461Z,72.41
2023-05-14T03:23:11.481Z,72.37
2023-05-14T03:24:11.496Z,72.34
2023-05-14T03:25:11.477Z,72.36
2023-05-14T03:26:11.500Z,72.32
2023-05-14T03:27:11.484Z,72.21
2023-05-14T03:28:11.495Z,72.06
2023-05-14T03:29:11.505Z,71.95
2023-05-14T03:30:11.548Z,71.93
2023-05-14T03:31:11.633Z,71.93
2023-05-14T03:32:11.612Z,71.88
2023-05-14T03:33:11.650Z,71.90
2023-05-14T03:34:11.689Z,71.88
2023-05-14T03:35:11.694Z,71.83
2023-05-14T03:36:11.728Z,71.65
2023-05-14T03:37:11.781Z,71.56
2023-05-14T03:38:11.833Z,71.54
2023-05-14T03:39:11.899Z,71.53
2023-05-14T03:40:11.989Z,71.46
2023-05-14T03:41:12.055Z,71.33
2023-05-14T03:42:12.075Z,71.24
2023-05-14T03:43:12.114Z,71.28
2023-05-14T03:44:12.173Z,71.25
2023-05-14T03:45:12.225Z,71.26
2023-05-14T03:46:12.294Z,71.22
2023-05-14T03:47:12.363Z,71.24
2023-05-14T03:48:12.548Z,71.16
2023-05-14T03:49:12.505Z,71.23
2023-05-14T03:50:12.479Z,71.16
2023-05-14T03:51:12.502Z,71.12
2023-05-14T03:52:12.564Z,71.11
2023-05-14T03:53:12.574Z,71.09
2023-05-14T03:54:12.574Z,71.11
2023-05-14T03:55:12.578Z,71.10
2023-05-14T03:56:12.659Z,71.15
2023-05-14T03:57:12.632Z,71.13
2023-05-14T03:58:12.650Z,71.15
2023-05-14T03:59:12.723Z,71.22
2023-05-14T04:00:12.759Z,71.23
2023-05-14T04:01:12.765Z,71.20
2023-05-14T04:02:12.856Z,71.19
2023-05-14T04:03:12.998Z,71.18
2023-05-14T04:04:12.924Z,71.17
2023-05-14T04:05:12.901Z,71.15
2023-05-14T04:06:12.904Z,71.28
2023-05-14T04:07:12.914Z,71.13
2023-05-14T04:08:12.908Z,71.19
2023-05-14T04:09:12.933Z,71.34
2023-05-14T04:10:12.915Z,71.22
2023-05-14T04:11:12.918Z,71.12
2023-05-14T04:12:12.907Z,71.01
2023-05-14T04:13:12.913Z,70.96
2023-05-14T04:14:12.925Z,70.85
2023-05-14T04:15:12.920Z,70.76
2023-05-14T04:16:12.949Z,70.67
2023-05-14T04:17:12.925Z,70.65
2023-05-14T04:18:13.006Z,70.65
2023-05-14T04:19:13.014Z,70.49
2023-05-14T04:20:12.988Z,70.47
2023-05-14T04:21:13.060Z,70.35
2023-05-14T04:22:13.118Z,70.38
2023-05-14T04:23:13.158Z,70.40
2023-05-14T04:24:13.236Z,70.35
2023-05-14T04:25:13.331Z,70.47
2023-05-14T04:26:13.370Z,70.41
2023-05-14T04:27:13.414Z,70.14
2023-05-14T04:28:13.445Z,70.08
2023-05-14T04:29:13.494Z,70.01
2023-05-14T04:30:13.510Z,70.02
2023-05-14T04:31:13.536Z,70.07
2023-05-14T04:32:13.469Z,70.00
2023-05-14T04:33:13.446Z,69.80
2023-05-14T04:34:13.448Z,69.77
2023-05-14T04:35:13.421Z,69.70
2023-05-14T04:36:13.417Z,69.74
2023-05-14T04:37:13.404Z,69.79
2023-05-14T04:38:13.404Z,69.60
2023-05-14T04:39:13.401Z,69.44
2023-05-14T04:40:13.365Z,69.34
2023-05-14T04:41:13.363Z,69.36
2023-05-14T04:42:13.358Z,69.42
2023-05-14T04:43:13.332Z,69.32
2023-05-14T04:44:13.342Z,69.19
2023-05-14T04:45:13.325Z,68.97
2023-05-14T04:46:13.439Z,68.87
2023-05-14T04:47:13.438Z,68.83
2023-05-14T04:48:13.482Z,68.57
2023-05-14T04:49:13.509Z,68.43
2023-05-14T04:50:13.527Z,68.57
2023-05-14T04:51:13.521Z,68.61
2023-05-14T04:52:13.524Z,68.59
2023-05-14T04:53:13.521Z,68.45
2023-05-14T04:54:13.548Z,68.50
2023-05-14T04:55:13.553Z,68.36
2023-05-14T04:56:13.532Z,68.29
2023-05-14T04:57:13.553Z,68.36
2023-05-14T04:58:13.589Z,68.23
2023-05-14T04:59:13.630Z,68.40
2023-05-14T05:00:13.631Z,68.90
2023-05-14T05:01:13.751Z,69.24
2023-05-14T05:02:13.640Z,70.07
2023-05-14T05:03:13.780Z,69.44
2023-05-14T05:04:13.670Z,69.68
2023-05-14T05:05:13.609Z,69.28
2023-05-14T05:06:13.602Z,68.84
2023-05-14T05:07:13.579Z,68.07
2023-05-14T05:08:13.551Z,67.49
2023-05-14T05:09:13.517Z,67.04
2023-05-14T05:10:13.481Z,66.62
2023-05-14T05:11:13.463Z,65.98
2023-05-14T05:12:13.422Z,65.62
2023-05-14T05:13:13.388Z,65.09
2023-05-14T05:14:13.355Z,64.60
2023-05-14T05:15:13.328Z,64.54
2023-05-14T05:16:13.327Z,64.67
2023-05-14T05:17:13.283Z,64.69
2023-05-14T05:18:13.296Z,64.35
2023-05-14T05:19:13.385Z,64.33
2023-05-14T05:20:13.273Z,64.48
2023-05-14T05:21:13.258Z,64.51
2023-05-14T05:22:13.212Z,64.32
2023-05-14T05:23:13.301Z,63.90
2023-05-14T05:24:13.244Z,64.23
2023-05-14T05:25:13.302Z,63.87
2023-05-14T05:26:13.230Z,63.38
2023-05-14T05:27:13.217Z,63.49
2023-05-14T05:28:13.171Z,63.85
2023-05-14T05:29:13.135Z,64.48
2023-05-14T05:30:13.080Z,64.02
2023-05-14T05:31:13.060Z,63.79
2023-05-14T05:32:13.003Z,63.39
2023-05-14T05:33:12.978Z,63.19
2023-05-14T05:34:12.942Z,63.06
2023-05-14T05:35:12.882Z,63.02
2023-05-14T05:36:12.854Z,62.72
2023-05-14T05:37:12.852Z,62.54
2023-05-14T05:38:12.779Z,62.64
2023-05-14T05:39:12.777Z,62.89
2023-05-14T05:40:12.816Z,63.16
2023-05-14T05:41:12.845Z,63.28
2023-05-14T05:42:12.847Z,62.97
2023-05-14T05:43:12.890Z,62.77
2023-05-14T05:44:12.919Z,62.65
2023-05-14T05:45:12.928Z,62.81
2023-05-14T05:46:13.010Z,62.63
2023-05-14T05:47:12.973Z,62.54
2023-05-14T05:48:12.982Z,62.34
2023-05-14T05:49:12.997Z,62.37
2023-05-14T05:50:12.987Z,62.49
2023-05-14T05:51:13.037Z,62.89
2023-05-14T05:52:13.059Z,62.79
2023-05-14T05:53:13.085Z,62.89
2023-05-14T05:54:13.104Z,62.43
2023-05-14T05:55:13.065Z,62.36
2023-05-14T05:56:13.037Z,62.05
2023-05-14T05:57:13.004Z,61.88
2023-05-14T05:58:12.971Z,61.73
2023-05-14T05:59:12.947Z,61.58
2023-05-14T06:00:12.908Z,61.48
2023-05-14T06:01:12.884Z,61.27
2023-05-14T06:02:12.828Z,61.28
2023-05-14T06:03:12.795Z,61.32
2023-05-14T06:04:12.814Z,61.29
2023-05-14T06:05:12.758Z,60.82
2023-05-14T06:06:12.626Z,60.94
2023-05-14T06:07:12.852Z,60.57
2023-05-14T06:08:12.707Z,60.43
2023-05-14T06:09:12.733Z,60.38
2023-05-14T06:10:12.729Z,60.72
2023-05-14T06:11:12.727Z,60.53
2023-05-14T06:12:12.707Z,60.41
2023-05-14T06:13:12.734Z,60.37
2023-05-14T06:14:12.689Z,60.23
2023-05-14T06:15:12.678Z,59.87
2023-05-14T06:16:12.706Z,59.63
2023-05-14T06:17:12.708Z,59.70
2023-05-14T06:18:12.728Z,59.96
2023-05-14T06:19:12.792Z,60.04
2023-05-14T06:20:12.684Z,59.78
2023-05-14T06:21:12.662Z,59.95
2023-05-14T06:22:12.665Z,59.48
2023-05-14T06:23:12.668Z,59.10
2023-05-14T06:24:12.620Z,58.64
2023-05-14T06:25:12.615Z,58.39
2023-05-14T06:26:12.575Z,58.53
2023-05-14T06:27:12.599Z,58.26
2023-05-14T06:28:12.613Z,58.12
2023-05-14T06:29:12.602Z,57.76
2023-05-14T06:30:12.629Z,57.50
2023-05-14T06:31:12.594Z,57.27
2023-05-14T06:32:12.599Z,57.26
2023-05-14T06:33:12.549Z,57.04
2023-05-14T06:34:12.558Z,56.98
2023-05-14T06:35:12.545Z,56.89
2023-05-14T06:36:12.567Z,56.49
2023-05-14T06:37:12.552Z,56.44
2023-05-14T06:38:12.549Z,56.56
2023-05-14T06:39:12.581Z,56.56
2023-05-14T06:40:12.509Z,56.09
2023-05-14T06:41:12.503Z,56.27
2023-05-14T06:42:12.508Z,56.18
2023-05-14T06:43:12.488Z,56.09
2023-05-14T06:44:12.472Z,55.60
2023-05-14T06:45:12.454Z,55.69
2023-05-14T06:46:12.409Z,55.13
2023-05-14T06:47:12.365Z,54.93
2023-05-14T06:48:12.364Z,54.98
2023-05-14T06:49:12.422Z,55.03
2023-05-14T06:50:12.256Z,55.21
2023-05-14T06:51:12.284Z,55.27
2023-05-14T06:52:12.252Z,54.88
2023-05-14T06:53:12.173Z,54.39
2023-05-14T06:54:12.171Z,54.27
2023-05-14T06:55:12.141Z,53.94
2023-05-14T06:56:12.103Z,53.63
2023-05-14T06:57:12.112Z,53.45
2023-05-14T06:58:12.099Z,53.59
2023-05-14T06:59:12.062Z,53.72
2023-05-14T07:00:12.059Z,54.17
2023-05-14T07:01:12.072Z,53.65
2023-05-14T07:02:12.007Z,52.82
2023-05-14T07:03:12.035Z,52.67
2023-05-14T07:04:12.025Z,52.66
2023-05-14T07:05:12.049Z,54.38
2023-05-14T07:06:13.622Z,54.57
2023-05-14T07:07:11.973Z,55.39
2023-05-14T07:08:11.925Z,55.64
2023-05-14T07:09:11.897Z,54.37
2023-05-14T07:10:11.854Z,54.61
2023-05-14T07:11:11.843Z,53.79
2023-05-14T07:12:11.805Z,53.61
2023-05-14T07:13:11.761Z,53.70
2023-05-14T07:14:11.692Z,52.73
2023-05-14T07:15:11.697Z,52.13
2023-05-14T07:16:11.672Z,53.33
2023-05-14T07:17:11.721Z,53.34
2023-05-14T07:18:11.622Z,54.28
2023-05-14T07:19:11.640Z,53.79
2023-05-14T07:20:11.621Z,53.27
2023-05-14T07:21:11.546Z,52.87
2023-05-14T07:22:11.498Z,53.36
2023-05-14T07:23:11.438Z,52.13
2023-05-14T07:24:11.365Z,53.35
2023-05-14T07:25:11.302Z,53.02
2023-05-14T07:26:11.288Z,52.85
2023-05-14T07:27:11.177Z,52.69
2023-05-14T07:28:11.092Z,52.00
2023-05-14T07:29:11.041Z,51.59
2023-05-14T07:30:11.016Z,51.00
2023-05-14T07:31:11.021Z,50.70
2023-05-14T07:32:11.738Z,50.06
2023-05-14T07:33:10.821Z,49.24
2023-05-14T07:34:10.680Z,49.64
2023-05-14T07:35:10.633Z,50.12
2023-05-14T07:36:10.569Z,49.82
2023-05-14T07:37:10.634Z,48.56
2023-05-14T07:38:10.449Z,48.92
2023-05-14T07:39:10.400Z,47.59
2023-05-14T07:40:10.325Z,49.66
2023-05-14T07:41:10.261Z,49.52
2023-05-14T07:42:10.250Z,49.35
2023-05-14T07:43:10.134Z,50.51
2023-05-14T07:44:10.053Z,49.38
2023-05-14T07:45:09.964Z,49.62
2023-05-14T07:46:09.875Z,49.35
2023-05-14T07:47:09.833Z,48.79
2023-05-14T07:48:09.744Z,49.40
2023-05-14T07:49:09.621Z,48.89
2023-05-14T07:50:09.542Z,48.76
2023-05-14T07:51:09.489Z,48.74
2023-05-14T07:52:09.381Z,48.37
2023-05-14T07:53:09.304Z,49.26
2023-05-14T07:54:09.203Z,48.54
2023-05-14T07:55:09.132Z,48.68
2023-05-14T07:56:09.037Z,49.60
2023-05-14T07:57:09.005Z,49.62
2023-05-14T07:58:08.972Z,49.48
2023-05-14T07:59:08.943Z,49.72
2023-05-14T08:00:08.904Z,48.47
2023-05-14T08:01:08.887Z,48.59
2023-05-14T08:02:08.841Z,48.24
2023-05-14T08:03:08.845Z,48.62
2023-05-14T08:04:08.741Z,49.29
2023-05-14T08:05:08.644Z,51.11
2023-05-14T08:06:08.557Z,51.04
2023-05-14T08:07:08.519Z,50.63
2023-05-14T08:08:08.498Z,50.92
2023-05-14T08:09:08.447Z,50.42
2023-05-14T08:10:08.439Z,49.58
2023-05-14T08:11:08.500Z,49.64
2023-05-14T08:12:08.367Z,48.78
2023-05-14T08:13:08.316Z,48.61
2023-05-14T08:14:08.250Z,49.24
2023-05-14T08:15:08.172Z,49.73
2023-05-14T08:16:08.075Z,51.13
2023-05-14T08:17:08.202Z,50.35
2023-05-14T08:18:08.041Z,48.88
2023-05-14T08:19:08.086Z,49.59
2023-05-14T08:20:07.883Z,47.79
2023-05-14T08:21:07.819Z,47.09
2023-05-14T08:22:07.786Z,46.89
2023-05-14T08:23:07.705Z,48.32
2023-05-14T08:24:07.690Z,49.57
2023-05-14T08:25:07.687Z,48.31
2023-05-14T08:26:07.656Z,48.67
2023-05-14T08:27:07.633Z,48.74
2023-05-14T08:28:07.486Z,49.74
2023-05-14T08:29:09.366Z,48.96
2023-05-14T08:30:08.279Z,49.08
2023-05-14T08:31:07.274Z,47.83
2023-05-14T08:32:19.347Z,50.26
2023-05-14T08:33:08.059Z,49.56
2023-05-14T08:34:06.954Z,50.20
2023-05-14T08:35:06.876Z,48.74
2023-05-14T08:36:06.782Z,49.74
2023-05-14T08:37:06.685Z,50.76
2023-05-14T08:38:06.595Z,50.97
2023-05-14T08:39:06.524Z,50.54
2023-05-14T08:40:06.426Z,50.63
2023-05-14T08:41:06.388Z,50.58
2023-05-14T08:42:06.333Z,51.20
2023-05-14T08:43:06.237Z,51.00
2023-05-14T08:44:06.179Z,51.34
2023-05-14T08:45:06.133Z,51.76
2023-05-14T08:46:05.961Z,52.53
2023-05-14T08:47:05.889Z,52.69
2023-05-14T08:48:05.901Z,51.74
2023-05-14T08:49:05.882Z,51.79
2023-05-14T08:50:05.753Z,52.49
2023-05-14T08:51:05.722Z,53.16
2023-05-14T08:52:05.696Z,52.98
2023-05-14T08:53:05.651Z,53.95
2023-05-14T08:54:05.627Z,54.72
2023-05-14T08:55:05.614Z,54.50
2023-05-14T08:56:05.555Z,54.87
2023-05-14T08:57:05.535Z,54.76
2023-05-14T08:58:05.454Z,54.61
2023-05-14T08:59:05.385Z,53.18
2023-05-14T09:00:05.325Z,53.21
2023-05-14T09:01:05.307Z,52.96
2023-05-14T09:02:05.300Z,52.81
2023-05-14T09:03:05.202Z,51.52
2023-05-14T09:04:05.127Z,52.38
2023-05-14T09:05:05.095Z,52.20
2023-05-14T09:06:05.058Z,51.95
2023-05-14T09:07:05.026Z,52.41
2023-05-14T09:08:04.998Z,53.89
2023-05-14T09:09:04.947Z,53.35
2023-05-14T09:10:04.888Z,51.91
2023-05-14T09:11:04.825Z,52.16
2023-05-14T09:12:04.760Z,51.88
2023-05-14T09:13:04.726Z,50.23
2023-05-14T09:14:04.665Z,51.56
2023-05-14T09:15:04.629Z,50.61
2023-05-14T09:16:04.577Z,52.56
2023-05-14T09:17:04.831Z,50.74
2023-05-14T09:18:04.516Z,50.90
2023-05-14T09:19:04.479Z,50.15
2023-05-14T09:20:04.434Z,51.01
2023-05-14T09:21:04.266Z,50.12
2023-05-14T09:22:04.413Z,50.98
2023-05-14T09:23:04.226Z,50.06
2023-05-14T09:24:04.161Z,50.74
2023-05-14T09:25:04.139Z,50.36
2023-05-14T09:26:04.132Z,51.41
2023-05-14T09:27:04.346Z,51.59
2023-05-14T09:28:04.062Z,52.66
2023-05-14T09:29:04.081Z,52.92
2023-05-14T09:30:03.971Z,53.29
2023-05-14T09:31:03.925Z,53.47
2023-05-14T09:32:03.864Z,52.87
2023-05-14T09:33:03.741Z,51.85
2023-05-14T09:34:03.637Z,52.10
2023-05-14T09:35:03.564Z,53.48
2023-05-14T09:36:03.479Z,52.28
2023-05-14T09:37:03.434Z,52.88
2023-05-14T09:38:03.377Z,52.59
2023-05-14T09:39:03.277Z,54.01
2023-05-14T09:40:03.205Z,53.67
2023-05-14T09:41:03.115Z,54.07
2023-05-14T09:42:03.036Z,53.57
2023-05-14T09:43:02.957Z,55.30
2023-05-14T09:44:04.667Z,55.24
2023-05-14T09:45:02.846Z,55.24
2023-05-14T09:46:02.771Z,55.02
2023-05-14T09:47:02.718Z,56.10
2023-05-14T09:48:02.891Z,56.53
2023-05-14T09:49:02.574Z,56.08
2023-05-14T09:50:02.532Z,55.33
2023-05-14T09:51:04.073Z,57.67
2023-05-14T09:52:02.378Z,59.17
2023-05-14T09:53:02.374Z,60.68
2023-05-14T09:54:02.274Z,59.50
2023-05-14T09:55:02.216Z,60.01
2023-05-14T09:56:02.202Z,59.90
2023-05-14T09:57:02.185Z,60.00
2023-05-14T09:58:02.149Z,60.97
2023-05-14T09:59:02.149Z,60.79
2023-05-14T10:00:02.103Z,60.08
2023-05-14T10:01:02.120Z,60.21
2023-05-14T10:02:02.063Z,58.33
2023-05-14T10:03:02.101Z,58.76
2023-05-14T10:04:02.047Z,57.60
2023-05-14T10:05:01.958Z,56.36
2023-05-14T10:06:01.948Z,58.89
2023-05-14T10:07:01.924Z,59.08
2023-05-14T10:08:01.942Z,60.27
2023-05-14T10:09:01.954Z,60.46
2023-05-14T10:10:01.990Z,60.37
2023-05-14T10:11:01.986Z,61.15
2023-05-14T10:12:01.991Z,60.84
2023-05-14T10:13:01.956Z,60.95
2023-05-14T10:14:01.935Z,61.22
2023-05-14T10:15:01.935Z,60.76
2023-05-14T10:16:01.910Z,60.63
2023-05-14T10:17:01.973Z,62.50
2023-05-14T10:18:01.965Z,63.28
2023-05-14T10:19:01.898Z,63.04
2023-05-14T10:20:01.906Z,61.83
2023-05-14T10:21:01.912Z,62.15
2023-05-14T10:22:01.878Z,62.68
2023-05-14T10:23:01.845Z,61.67
2023-05-14T10:24:01.844Z,61.65
2023-05-14T10:25:01.792Z,63.43
2023-05-14T10:26:01.776Z,62.56
2023-05-14T10:27:01.720Z,62.09
2023-05-14T10:28:01.748Z,63.66
2023-05-14T10:29:01.715Z,63.04
2023-05-14T10:30:01.687Z,61.29
2023-05-14T10:31:01.721Z,60.84
2023-05-14T10:32:01.701Z,62.57
2023-05-14T10:33:01.707Z,64.49
2023-05-14T10:34:01.688Z,61.38
2023-05-14T10:35:01.665Z,62.99
2023-05-14T10:36:01.681Z,63.94
2023-05-14T10:37:01.713Z,64.62
2023-05-14T10:38:01.674Z,63.19
2023-05-14T10:39:01.665Z,64.12
2023-05-14T10:40:01.634Z,64.78
2023-05-14T10:41:01.642Z,65.46
2023-05-14T10:42:01.601Z,64.54
2023-05-14T10:43:01.607Z,65.70
2023-05-14T10:44:01.583Z,65.69
2023-05-14T10:45:01.538Z,64.54
2023-05-14T10:46:01.515Z,63.08
2023-05-14T10:47:01.556Z,63.00
2023-05-14T10:48:01.512Z,61.56
2023-05-14T10:49:01.466Z,60.06
2023-05-14T10:50:01.429Z,59.33
2023-05-14T10:51:01.433Z,58.33
2023-05-14T10:52:01.369Z,59.53
2023-05-14T10:53:01.382Z,60.92
2023-05-14T10:54:01.302Z,60.43
2023-05-14T10:55:03.174Z,59.70
2023-05-14T10:56:01.285Z,59.93
2023-05-14T10:57:01.182Z,59.51
2023-05-14T10:58:01.188Z,57.79
2023-05-14T10:59:01.121Z,57.00
2023-05-14T11:00:01.205Z,55.89
2023-05-14T11:01:01.039Z,54.42
2023-05-14T11:02:01.067Z,54.36
2023-05-14T11:03:01.070Z,55.69
2023-05-14T11:04:00.938Z,54.08
2023-05-14T11:05:00.881Z,54.00
2023-05-14T11:06:00.865Z,54.41
2023-05-14T11:07:00.785Z,53.59
2023-05-14T11:08:00.765Z,52.45
2023-05-14T11:09:00.678Z,52.82
2023-05-14T11:10:00.734Z,52.52
2023-05-14T11:11:00.705Z,52.40
2023-05-14T11:12:00.586Z,51.64
2023-05-14T11:13:00.505Z,52.49
2023-05-14T11:14:00.463Z,53.44
2023-05-14T11:15:00.372Z,52.61
2023-05-14T11:16:08.789Z,52.53
2023-05-14T11:17:01.313Z,52.92
2023-05-14T11:18:00.318Z,52.96
2023-05-14T11:19:00.131Z,51.48
2023-05-14T11:20:00.089Z,50.99
2023-05-14T11:20:59.979Z,50.38
2023-05-14T11:21:59.830Z,52.79
2023-05-14T11:22:59.755Z,50.65
2023-05-14T11:23:59.665Z,50.76
2023-05-14T11:24:59.549Z,49.58
2023-05-14T11:25:59.467Z,49.62
2023-05-14T11:26:59.467Z,49.75
2023-05-14T11:27:59.272Z,49.51
2023-05-14T11:28:59.245Z,49.64
2023-05-14T11:29:59.225Z,49.72
2023-05-14T11:30:59.172Z,51.24
2023-05-14T11:31:59.126Z,51.70
2023-05-14T11:33:00.697Z,49.24
2023-05-14T11:33:58.948Z,49.48
2023-05-14T11:34:58.854Z,49.76
2023-05-14T11:35:58.752Z,50.79
2023-05-14T11:36:58.728Z,52.69
2023-05-14T11:37:58.656Z,52.96
2023-05-14T11:38:58.568Z,52.11
2023-05-14T11:39:58.478Z,52.57
2023-05-14T11:40:58.426Z,50.85
2023-05-14T11:41:58.354Z,53.85
2023-05-14T11:42:58.294Z,52.06
2023-05-14T11:43:58.195Z,52.20
2023-05-14T11:44:58.075Z,51.10
2023-05-14T11:45:58.010Z,51.28
2023-05-14T11:46:57.893Z,50.48
2023-05-14T11:47:58.015Z,49.52
2023-05-14T11:48:57.833Z,49.27
2023-05-14T11:49:57.746Z,48.68
2023-05-14T11:50:57.611Z,49.36
2023-05-14T11:51:57.602Z,49.57
2023-05-14T11:52:57.834Z,48.76
2023-05-14T11:53:57.520Z,48.32
2023-05-14T11:54:57.429Z,48.41
2023-05-14T11:55:57.341Z,48.08
2023-05-14T11:56:57.236Z,50.12
2023-05-14T11:57:57.153Z,50.19
2023-05-14T11:58:57.050Z,49.28
2023-05-14T11:59:56.957Z,51.06
2023-05-14T12:00:56.880Z,50.61
2023-05-14T12:01:56.780Z,49.79
2023-05-14T12:02:56.831Z,49.75
2023-05-14T12:03:56.677Z,51.00
2023-05-14T12:04:56.529Z,51.14
2023-05-14T12:05:56.421Z,53.18
2023-05-14T12:06:56.341Z,52.09
2023-05-14T12:07:56.283Z,53.25
2023-05-14T12:08:56.196Z,52.47
2023-05-14T12:09:56.130Z,52.23
2023-05-14T12:10:56.093Z,52.96
2023-05-14T12:11:56.001Z,53.38
2023-05-14T12:12:55.902Z,52.58
2023-05-14T12:13:55.841Z,54.83
2023-05-14T12:14:55.735Z,53.86
2023-05-14T12:15:55.709Z,53.74
2023-05-14T12:16:55.644Z,53.53
2023-05-14T12:17:55.615Z,54.04
2023-05-14T12:18:55.520Z,54.45
2023-05-14T12:19:55.442Z,55.75
2023-05-14T12:20:55.375Z,56.83
2023-05-14T12:21:55.276Z,55.45
2023-05-14T12:22:55.234Z,56.47
2023-05-14T12:23:55.145Z,55.29
2023-05-14T12:24:55.080Z,55.79
2023-05-14T12:25:55.042Z,56.52
2023-05-14T12:26:55.007Z,56.27
2023-05-14T12:27:54.952Z,56.65
2023-05-14T12:28:54.931Z,56.16
2023-05-14T12:29:54.841Z,56.17
2023-05-14T12:30:54.814Z,56.29
2023-05-14T12:31:55.380Z,57.31
2023-05-14T12:32:54.794Z,57.62
2023-05-14T12:33:54.683Z,56.08
2023-05-14T12:34:54.633Z,55.80
2023-05-14T12:35:54.621Z,56.12
2023-05-14T12:36:54.568Z,55.68
2023-05-14T12:37:55.390Z,55.03
2023-05-14T12:38:55.341Z,54.66
2023-05-14T12:39:54.525Z,53.51
2023-05-14T12:40:54.499Z,53.96
2023-05-14T12:41:54.307Z,52.90
2023-05-14T12:42:56.074Z,52.46
2023-05-14T12:43:54.863Z,53.79
2023-05-14T12:44:54.833Z,53.20
2023-05-14T12:45:54.229Z,53.25
2023-05-14T12:46:54.149Z,53.80
2023-05-14T12:47:53.992Z,54.03
2023-05-14T12:48:53.923Z,53.21
2023-05-14T12:49:53.857Z,53.96
2023-05-14T12:50:53.794Z,52.61
2023-05-14T12:52:07.916Z,53.04